createdAt,value
2019-05-02T00:02:02.822Z,9.71
2019-05-02T00:07:07.372Z,9.59
2019-05-02T00:12:15.769Z,9.59
2019-05-02T00:17:20.169Z,9.42
2019-05-02T00:22:24.394Z,9.42
2019-05-02T00:27:27.615Z,9.54
2019-05-02T00:32:31.107Z,9.61
2019-05-02T00:37:34.644Z,9.39
2019-05-02T00:42:38.208Z,9.46
2019-05-02T00:47:53.357Z,9.49
2019-05-02T00:52:56.955Z,9.56
2019-05-02T00:58:00.567Z,9.36
2019-05-02T01:03:04.110Z,9.48
2019-05-02T01:08:07.425Z,9.42
2019-05-02T01:13:10.606Z,9.44
2019-05-02T01:18:14.133Z,9.47
2019-05-02T01:23:17.931Z,9.38
2019-05-02T01:28:49.132Z,9.32
2019-05-02T01:34:01.274Z,9.20
2019-05-02T01:39:08.713Z,9.51
2019-05-02T01:44:11.729Z,9.52
2019-05-02T01:49:16.796Z,9.47
2019-05-02T01:54:22.391Z,9.46
2019-05-02T01:59:29.126Z,9.52
2019-05-02T02:04:30.645Z,9.90
2019-05-02T02:09:33.865Z,9.82
2019-05-02T02:14:38.517Z,10.00
2019-05-02T02:19:49.345Z,10.00
2019-05-02T02:25:11.452Z,9.99
2019-05-02T02:30:17.723Z,10.15
2019-05-02T02:35:20.593Z,10.07
2019-05-02T02:40:32.836Z,10.20
2019-05-02T02:45:58.013Z,10.05
2019-05-02T02:51:00.583Z,10.11
2019-05-02T02:56:06.430Z,10.12
2019-05-02T03:01:09.945Z,10.08
2019-05-02T03:06:13.552Z,9.94
2019-05-02T03:11:23.590Z,10.04
2019-05-02T03:16:25.534Z,9.91
2019-05-02T03:21:28.066Z,10.16
2019-05-02T03:26:32.159Z,10.20
2019-05-02T03:31:36.781Z,10.13
2019-05-02T03:36:39.364Z,10.14
2019-05-02T03:41:43.068Z,9.92
2019-05-02T03:46:45.974Z,10.04
2019-05-02T03:51:49.444Z,9.78
2019-05-02T03:56:53.420Z,9.76
2019-05-02T04:01:57.959Z,9.92
2019-05-02T04:07:03.448Z,9.79
2019-05-02T04:12:11.776Z,9.87
2019-05-02T04:17:12.964Z,9.67
2019-05-02T04:27:19.549Z,9.90
2019-05-02T04:32:22.364Z,9.69
2019-05-02T04:37:25.590Z,9.81
2019-05-02T04:42:29.561Z,10.14
2019-05-02T04:47:33.084Z,9.79
2019-05-02T04:52:38.453Z,9.79
2019-05-02T04:57:47.231Z,9.67
2019-05-02T05:02:48.396Z,9.81
2019-05-02T05:07:51.632Z,9.77
2019-05-02T05:12:57.072Z,9.63
2019-05-02T05:18:04.576Z,9.58
2019-05-02T05:23:05.336Z,9.66
2019-05-02T05:28:09.116Z,9.63
2019-05-02T05:33:11.873Z,9.60
2019-05-02T05:38:15.332Z,9.63
2019-05-02T05:43:20.575Z,9.87
2019-05-02T05:48:24.271Z,9.58
2019-05-02T05:53:28.185Z,9.68
2019-05-02T05:58:31.898Z,9.53
2019-05-02T06:03:41.635Z,9.44
2019-05-02T06:08:40.839Z,9.38
2019-05-02T06:13:48.475Z,9.36
2019-05-02T06:18:50.061Z,9.62
2019-05-02T06:23:53.264Z,9.56
2019-05-02T06:28:56.542Z,9.40
2019-05-02T06:34:02.019Z,9.45
2019-05-02T06:39:05.663Z,9.56
2019-05-02T06:44:10.290Z,9.55
2019-05-02T06:49:13.420Z,9.71
2019-05-02T06:54:17.942Z,9.72
2019-05-02T06:59:21.569Z,9.61
2019-05-02T07:04:25.086Z,9.60
2019-05-02T07:09:39.818Z,9.97
2019-05-02T07:14:33.052Z,9.79
2019-05-02T07:19:41.375Z,9.71
2019-05-02T07:24:44.581Z,9.73
2019-05-02T07:29:52.117Z,9.78
2019-05-02T07:34:53.682Z,9.95
2019-05-02T07:39:56.892Z,9.84
2019-05-02T07:45:04.451Z,9.81
2019-05-02T07:50:10.526Z,9.74
2019-05-02T07:55:11.359Z,10.03
2019-05-02T08:00:14.831Z,9.98
2019-05-02T08:05:21.799Z,9.92
2019-05-02T08:10:24.062Z,9.98
2019-05-02T08:15:27.193Z,9.92
2019-05-02T08:20:29.706Z,9.93
2019-05-02T08:25:32.942Z,9.85
2019-05-02T08:30:41.919Z,10.13
2019-05-02T08:35:44.837Z,10.29
2019-05-02T08:40:47.746Z,10.21
2019-05-02T08:45:52.065Z,10.16
2019-05-02T08:50:54.930Z,10.25
2019-05-02T08:55:58.237Z,10.06
2019-05-02T09:01:01.401Z,9.96
2019-05-02T09:06:06.237Z,9.94
2019-05-02T09:11:14.176Z,10.15
2019-05-02T09:16:14.966Z,10.29
2019-05-02T09:21:18.460Z,10.25
2019-05-02T09:26:33.281Z,10.15
2019-05-02T09:31:26.249Z,10.12
2019-05-02T09:36:29.485Z,10.06
2019-05-02T09:41:36.201Z,10.05
2019-05-02T09:46:38.147Z,10.19
2019-05-02T09:51:42.016Z,10.31
2019-05-02T09:56:46.813Z,10.40
2019-05-02T10:01:50.099Z,10.29
2019-05-02T10:06:53.763Z,10.17
2019-05-02T10:11:56.715Z,10.29
2019-05-02T10:17:03.083Z,10.37
2019-05-02T10:22:06.715Z,10.39
2019-05-02T10:27:10.035Z,10.19
2019-05-02T10:32:16.569Z,10.09
2019-05-02T10:37:17.583Z,9.94
2019-05-02T10:42:22.080Z,9.98
2019-05-02T10:47:25.740Z,10.06
2019-05-02T10:52:32.229Z,10.04
2019-05-02T10:57:34.968Z,10.01
2019-05-02T11:02:55.508Z,9.78
2019-05-02T11:08:04.658Z,9.83
2019-05-02T11:13:23.177Z,9.76
2019-05-02T11:18:40.307Z,9.96
2019-05-02T11:23:33.671Z,9.80
2019-05-02T11:28:36.910Z,9.78
2019-05-02T11:33:41.877Z,9.83
2019-05-02T11:38:48.150Z,9.68
2019-05-02T11:43:52.192Z,9.69
2019-05-02T11:48:58.565Z,9.61
2019-05-02T11:54:05.064Z,9.57
2019-05-02T11:59:05.449Z,9.60
2019-05-02T12:04:13.041Z,9.71
2019-05-02T12:09:15.070Z,9.74
2019-05-02T12:14:18.210Z,9.86
2019-05-02T12:19:22.882Z,9.89
2019-05-02T12:24:26.680Z,9.88
2019-05-02T12:29:30.251Z,9.80
2019-05-02T12:34:33.972Z,9.98
2019-05-02T12:39:37.198Z,10.00
2019-05-02T12:44:42.517Z,9.80
2019-05-02T12:49:45.728Z,9.76
2019-05-02T12:54:48.812Z,9.79
2019-05-02T12:59:52.498Z,9.91
2019-05-02T13:04:55.300Z,9.99
2019-05-02T13:09:58.602Z,9.92
2019-05-02T13:15:02.354Z,9.89
2019-05-02T13:20:08.121Z,9.92
2019-05-02T13:25:17.827Z,9.95
2019-05-02T13:30:32.796Z,10.04
2019-05-02T13:35:44.656Z,10.01
2019-05-02T13:40:48.174Z,10.01
2019-05-02T13:46:02.357Z,10.10
2019-05-02T13:51:05.642Z,9.83
2019-05-02T13:56:46.230Z,9.77
2019-05-02T14:01:52.298Z,9.81
2019-05-02T14:06:55.803Z,9.74
2019-05-02T14:12:11.916Z,9.83
2019-05-02T14:17:14.840Z,9.63
2019-05-02T14:22:18.054Z,9.62
2019-05-02T14:27:22.347Z,9.57
2019-05-02T14:32:26.592Z,9.31
2019-05-02T14:37:29.872Z,9.44
2019-05-02T14:42:33.278Z,9.57
2019-05-02T14:47:36.533Z,9.55
2019-05-02T14:52:43.965Z,9.65
2019-05-02T14:57:45.686Z,9.71
2019-05-02T15:02:49.629Z,9.65
2019-05-02T15:07:56.741Z,9.84
2019-05-02T15:13:03.815Z,9.78
2019-05-02T15:18:08.001Z,9.65
2019-05-02T15:23:17.587Z,9.87
2019-05-02T15:28:19.862Z,10.04
2019-05-02T15:33:25.633Z,10.39
2019-05-02T15:38:29.088Z,10.23
2019-05-02T15:43:32.566Z,10.29
2019-05-02T15:48:36.361Z,10.31
2019-05-02T15:54:04.397Z,10.33
2019-05-02T15:58:58.104Z,10.40
2019-05-02T16:04:02.293Z,10.21
2019-05-02T16:09:07.343Z,9.98
2019-05-02T16:14:10.277Z,9.99
2019-05-02T16:19:22.655Z,9.94
2019-05-02T16:24:18.749Z,10.02
2019-05-02T16:29:26.787Z,10.33
2019-05-02T16:34:32.545Z,10.49
2019-05-02T16:39:33.984Z,10.36
2019-05-02T16:44:37.669Z,10.68
2019-05-02T16:49:41.864Z,10.36
2019-05-02T16:54:45.210Z,10.27
2019-05-02T16:59:53.960Z,10.15
2019-05-02T17:04:54.707Z,10.12
2019-05-02T17:10:19.669Z,10.13
2019-05-02T17:15:31.249Z,10.19
2019-05-02T17:20:33.591Z,9.96
2019-05-02T17:25:37.047Z,10.05
2019-05-02T17:30:42.535Z,9.88
2019-05-02T17:35:49.937Z,9.75
2019-05-02T17:40:53.865Z,9.66
2019-05-02T17:45:56.649Z,9.72
2019-05-02T17:51:12.424Z,9.71
2019-05-02T17:56:20.607Z,9.72
2019-05-02T18:01:33.299Z,9.59
2019-05-02T18:06:35.778Z,9.65
2019-05-02T18:11:39.329Z,9.70
2019-05-02T18:16:47.137Z,9.43
2019-05-02T18:21:47.418Z,9.42
2019-05-02T18:26:51.710Z,9.38
2019-05-02T18:31:55.476Z,9.13
2019-05-02T18:37:03.168Z,9.16
2019-05-02T18:42:03.998Z,9.10
2019-05-02T18:47:07.230Z,8.92
2019-05-02T18:52:11.815Z,8.96
2019-05-02T18:57:17.121Z,8.83
2019-05-02T19:02:21.553Z,8.86
2019-05-02T19:07:32.957Z,8.62
2019-05-02T19:12:32.595Z,8.64
2019-05-02T19:17:38.401Z,8.74
2019-05-02T19:22:48.858Z,8.51
2019-05-02T19:28:14.370Z,8.55
2019-05-02T19:33:20.905Z,8.51
2019-05-02T19:38:26.225Z,8.35
2019-05-02T19:43:28.771Z,8.23
2019-05-02T19:48:36.803Z,8.04
2019-05-02T19:53:37.687Z,8.05
2019-05-02T19:58:42.579Z,8.13
2019-05-02T20:03:46.357Z,7.87
2019-05-02T20:08:52.513Z,7.75
2019-05-02T20:13:54.697Z,7.71
2019-05-02T20:18:57.839Z,7.79
2019-05-02T20:24:03.918Z,7.74
2019-05-02T20:29:06.745Z,7.67
2019-05-02T20:34:11.727Z,7.56
2019-05-02T20:39:15.701Z,7.33
2019-05-02T20:44:19.304Z,7.28
2019-05-02T20:49:22.627Z,7.35
2019-05-02T20:54:26.484Z,7.24
2019-05-02T20:59:32.189Z,7.53
2019-05-02T21:04:35.755Z,7.24
2019-05-02T21:09:48.185Z,7.15
2019-05-02T21:14:52.333Z,7.09
2019-05-02T21:19:56.178Z,6.99
2019-05-02T21:24:59.895Z,6.84
2019-05-02T21:30:05.422Z,7.03
2019-05-02T21:35:08.906Z,6.81
2019-05-02T21:40:12.390Z,6.59
2019-05-02T21:45:15.814Z,6.57
2019-05-02T21:50:38.847Z,6.54
2019-05-02T21:56:02.952Z,6.58
2019-05-02T22:01:09.522Z,6.56
2019-05-02T22:06:12.730Z,6.60
2019-05-02T22:11:15.742Z,6.38
2019-05-02T22:16:18.947Z,6.49
2019-05-02T22:21:22.771Z,6.46
2019-05-02T22:26:26.296Z,6.54
2019-05-02T22:31:29.165Z,6.43
2019-05-02T22:36:32.924Z,6.29
2019-05-02T22:41:36.331Z,6.16
2019-05-02T22:46:45.804Z,6.12
2019-05-02T22:51:49.952Z,6.05
2019-05-02T22:56:53.699Z,6.22
2019-05-02T23:01:57.311Z,6.11
2019-05-02T23:07:02.363Z,6.10
2019-05-02T23:12:06.240Z,5.96
2019-05-02T23:17:09.471Z,6.01
2019-05-02T23:22:12.854Z,6.00
2019-05-02T23:27:23.352Z,5.88
2019-05-02T23:32:26.641Z,5.95
2019-05-02T23:37:32.615Z,5.95
2019-05-02T23:42:35.838Z,5.92
2019-05-02T23:47:39.037Z,5.97
2019-05-02T23:52:42.246Z,5.85
2019-05-02T23:57:45.523Z,5.82
